createdAt,value
2022-11-30T00:01:25.073Z,8.49
2022-11-30T00:03:55.024Z,7.43
2022-11-30T00:06:24.330Z,6.23
2022-11-30T00:08:53.612Z,5.41
2022-11-30T00:11:23.450Z,4.79
2022-11-30T00:13:51.830Z,4.31
2022-11-30T00:16:19.935Z,3.94
2022-11-30T00:18:48.113Z,4.15
2022-11-30T00:21:17.807Z,6.84
2022-11-30T00:23:47.889Z,8.60
2022-11-30T00:26:18.721Z,7.55
2022-11-30T00:28:47.845Z,6.33
2022-11-30T00:31:18.130Z,5.49
2022-11-30T00:33:46.900Z,4.89
2022-11-30T00:36:20.309Z,4.43
2022-11-30T00:38:50.092Z,4.03
2022-11-30T00:41:19.692Z,4.25
2022-11-30T00:43:48.039Z,6.96
2022-11-30T00:46:16.178Z,8.27
2022-11-30T00:48:44.490Z,7.14
2022-11-30T00:51:13.308Z,6.00
2022-11-30T00:53:42.124Z,5.21
2022-11-30T00:56:11.110Z,4.65
2022-11-30T00:58:39.273Z,4.22
2022-11-30T01:01:08.450Z,3.90
2022-11-30T01:03:37.033Z,4.19
2022-11-30T01:06:08.309Z,6.96
2022-11-30T01:08:37.412Z,8.59
2022-11-30T01:11:17.618Z,7.48
2022-11-30T01:13:45.687Z,6.22
2022-11-30T01:16:17.755Z,5.42
2022-11-30T01:18:46.895Z,4.86
2022-11-30T01:21:17.570Z,4.43
2022-11-30T01:23:46.416Z,4.08
2022-11-30T01:26:14.819Z,3.78
2022-11-30T01:28:44.472Z,4.23
2022-11-30T01:31:14.943Z,7.30
2022-11-30T01:33:43.623Z,8.60
2022-11-30T01:36:14.552Z,7.31
2022-11-30T01:38:55.781Z,6.04
2022-11-30T01:41:25.820Z,5.14
2022-11-30T01:43:56.873Z,4.56
2022-11-30T01:46:44.190Z,4.12
2022-11-30T01:49:32.007Z,3.71
2022-11-30T01:52:07.697Z,4.47
2022-11-30T01:55:14.660Z,7.69
2022-11-30T01:57:48.497Z,7.84
2022-11-30T02:00:17.221Z,6.41
2022-11-30T02:03:11.442Z,5.40
2022-11-30T02:05:41.597Z,4.68
2022-11-30T02:08:11.243Z,4.19
2022-11-30T02:10:43.638Z,4.33
2022-11-30T02:13:17.576Z,7.18
2022-11-30T02:16:27.429Z,8.76
2022-11-30T02:19:24.754Z,7.20
2022-11-30T02:22:20.786Z,5.89
2022-11-30T02:25:26.383Z,5.05
2022-11-30T02:28:18.991Z,4.39
2022-11-30T02:30:52.391Z,3.93
2022-11-30T02:33:25.986Z,4.37
2022-11-30T02:35:55.986Z,7.34
2022-11-30T02:38:26.986Z,8.39
2022-11-30T02:40:55.441Z,7.08
2022-11-30T02:43:25.874Z,5.93
2022-11-30T02:46:28.030Z,5.14
2022-11-30T02:49:05.489Z,4.48
2022-11-30T02:51:38.265Z,4.08
2022-11-30T02:54:06.377Z,4.21
2022-11-30T02:56:34.662Z,6.78
2022-11-30T02:59:02.827Z,8.43
2022-11-30T03:01:30.961Z,7.33
2022-11-30T03:03:58.976Z,6.04
2022-11-30T03:06:26.953Z,5.14
2022-11-30T03:08:54.981Z,4.49
2022-11-30T03:11:23.050Z,4.01
2022-11-30T03:13:51.157Z,3.65
2022-11-30T03:16:19.241Z,4.07
2022-11-30T03:18:47.314Z,7.05
2022-11-30T03:21:15.355Z,8.46
2022-11-30T03:23:43.431Z,7.29
2022-11-30T03:26:11.590Z,6.07
2022-11-30T03:28:39.672Z,5.26
2022-11-30T03:31:12.774Z,4.69
2022-11-30T03:33:42.348Z,4.25
2022-11-30T03:36:12.069Z,3.92
2022-11-30T03:38:40.625Z,3.64
2022-11-30T03:41:12.382Z,4.13
2022-11-30T03:43:41.050Z,7.22
2022-11-30T03:46:09.539Z,8.64
2022-11-30T03:48:38.465Z,7.46
2022-11-30T03:51:07.470Z,6.25
2022-11-30T03:53:35.484Z,5.42
2022-11-30T03:56:06.358Z,4.84
2022-11-30T03:58:35.261Z,4.39
2022-11-30T04:01:24.231Z,3.98
2022-11-30T04:03:53.003Z,3.61
2022-11-30T04:06:21.903Z,4.21
2022-11-30T04:08:50.358Z,7.27
2022-11-30T04:11:18.566Z,8.27
2022-11-30T04:13:46.644Z,7.03
2022-11-30T04:16:21.107Z,5.89
2022-11-30T04:18:49.155Z,5.18
2022-11-30T04:21:17.183Z,4.69
2022-11-30T04:23:45.469Z,4.30
2022-11-30T04:26:15.184Z,3.99
2022-11-30T04:28:43.704Z,3.71
2022-11-30T04:31:12.661Z,4.06
2022-11-30T04:33:40.716Z,6.97
2022-11-30T04:36:17.799Z,8.68
2022-11-30T04:38:46.564Z,7.47
2022-11-30T04:41:14.957Z,6.22
2022-11-30T04:43:42.949Z,5.35
2022-11-30T04:46:11.140Z,4.71
2022-11-30T04:48:39.265Z,4.23
2022-11-30T04:51:08.995Z,3.85
2022-11-30T04:53:38.291Z,3.55
2022-11-30T04:56:08.136Z,4.07
2022-11-30T04:58:36.702Z,7.10
2022-11-30T05:01:05.270Z,8.60
2022-11-30T05:03:33.456Z,7.45
2022-11-30T05:06:01.950Z,6.27
2022-11-30T05:08:30.524Z,5.47
2022-11-30T05:10:58.854Z,4.92
2022-11-30T05:13:27.271Z,4.49
2022-11-30T05:15:55.345Z,4.11
2022-11-30T05:18:23.718Z,3.77
2022-11-30T05:20:53.585Z,4.18
2022-11-30T05:23:22.203Z,7.16
2022-11-30T05:25:50.350Z,8.62
2022-11-30T05:28:18.509Z,7.44
2022-11-30T05:30:46.811Z,6.25
2022-11-30T05:33:15.097Z,5.43
2022-11-30T05:35:43.692Z,4.90
2022-11-30T05:38:11.788Z,4.50
2022-11-30T05:40:39.819Z,4.19
2022-11-30T05:43:07.834Z,3.91
2022-11-30T05:45:35.930Z,4.28
2022-11-30T05:48:04.110Z,7.19
2022-11-30T05:50:32.200Z,8.67
2022-11-30T05:53:01.118Z,7.52
2022-11-30T05:55:29.809Z,6.33
2022-11-30T05:57:58.107Z,5.52
2022-11-30T06:00:26.669Z,4.96
2022-11-30T06:02:58.791Z,4.53
2022-11-30T06:05:28.113Z,4.16
2022-11-30T06:07:59.736Z,3.84
2022-11-30T06:10:27.957Z,3.52
2022-11-30T06:12:56.022Z,4.38
2022-11-30T06:15:24.065Z,7.45
2022-11-30T06:17:52.176Z,8.23
2022-11-30T06:20:20.189Z,6.93
2022-11-30T06:22:48.231Z,5.82
2022-11-30T06:25:16.306Z,5.08
2022-11-30T06:27:44.337Z,4.54
2022-11-30T06:30:13.061Z,4.07
2022-11-30T06:32:45.440Z,3.66
2022-11-30T06:35:14.275Z,3.33
2022-11-30T06:37:43.296Z,4.45
2022-11-30T06:40:13.140Z,7.51
2022-11-30T06:42:41.128Z,8.03
2022-11-30T06:45:09.823Z,6.71
2022-11-30T06:47:37.873Z,5.64
2022-11-30T06:50:08.330Z,4.95
2022-11-30T06:52:36.367Z,4.45
2022-11-30T06:55:04.697Z,4.10
2022-11-30T06:57:32.752Z,3.79
2022-11-30T07:00:00.786Z,3.53
2022-11-30T07:02:28.871Z,3.94
2022-11-30T07:04:57.354Z,6.80
2022-11-30T07:07:25.571Z,8.40
2022-11-30T07:09:53.694Z,7.30
2022-11-30T07:12:21.719Z,6.12
2022-11-30T07:14:53.042Z,5.31
2022-11-30T07:17:21.107Z,4.75
2022-11-30T07:19:49.280Z,4.30
2022-11-30T07:22:17.271Z,3.96
2022-11-30T07:25:03.885Z,3.68
2022-11-30T07:27:31.935Z,3.40
2022-11-30T07:30:00.018Z,3.89
2022-11-30T07:32:28.097Z,6.88
2022-11-30T07:34:56.151Z,8.53
2022-11-30T07:37:24.523Z,7.43
2022-11-30T07:39:52.624Z,6.20
2022-11-30T07:42:20.759Z,5.32
2022-11-30T07:44:55.264Z,4.70
2022-11-30T07:47:26.723Z,4.22
2022-11-30T07:49:54.819Z,3.90
2022-11-30T07:52:23.179Z,3.65
2022-11-30T07:54:51.227Z,3.44
2022-11-30T07:57:19.358Z,3.80
2022-11-30T07:59:47.627Z,6.63
2022-11-30T08:02:16.065Z,8.44
2022-11-30T08:04:44.467Z,7.44
2022-11-30T08:07:16.225Z,6.20
2022-11-30T08:09:45.321Z,5.39
2022-11-30T08:12:13.398Z,4.85
2022-11-30T08:15:17.521Z,4.45
2022-11-30T08:17:29.495Z,4.09
2022-11-30T08:19:57.515Z,3.83
2022-11-30T08:22:25.527Z,3.60
2022-11-30T08:24:53.610Z,3.39
2022-11-30T08:27:21.770Z,3.91
2022-11-30T08:29:49.835Z,6.85
2022-11-30T08:32:18.459Z,8.32
2022-11-30T08:34:47.222Z,7.25
2022-11-30T08:37:15.432Z,6.14
2022-11-30T08:39:43.413Z,5.39
2022-11-30T08:42:12.456Z,4.88
2022-11-30T08:44:40.525Z,4.49
2022-11-30T08:47:08.660Z,4.14
2022-11-30T08:49:36.774Z,3.84
2022-11-30T08:52:20.378Z,3.59
2022-11-30T08:54:49.047Z,4.17
2022-11-30T08:57:20.083Z,7.12
2022-11-30T08:59:48.674Z,8.49
2022-11-30T09:02:19.645Z,7.33
2022-11-30T09:04:49.600Z,6.12
2022-11-30T09:07:18.247Z,5.28
2022-11-30T09:09:46.621Z,4.68
2022-11-30T09:12:14.989Z,4.24
2022-11-30T09:14:43.022Z,3.90
2022-11-30T09:17:11.162Z,3.65
2022-11-30T09:19:39.763Z,3.44
2022-11-30T09:22:07.810Z,3.79
2022-11-30T09:24:36.297Z,6.57
2022-11-30T09:27:04.345Z,8.50
2022-11-30T09:29:32.616Z,7.56
2022-11-30T09:32:00.628Z,6.34
2022-11-30T09:34:28.777Z,5.48
2022-11-30T09:36:56.921Z,4.90
2022-11-30T09:39:25.262Z,4.45
2022-11-30T09:42:50.575Z,4.08
2022-11-30T09:45:30.649Z,3.65
2022-11-30T09:47:59.077Z,3.38
2022-11-30T09:50:32.286Z,3.87
2022-11-30T09:53:10.821Z,7.02
2022-11-30T09:55:43.838Z,8.66
2022-11-30T09:58:50.977Z,7.46
2022-11-30T10:01:20.962Z,6.05
2022-11-30T10:03:49.789Z,5.31
2022-11-30T10:06:25.683Z,4.78
2022-11-30T10:09:02.711Z,4.33
2022-11-30T10:11:30.674Z,3.99
2022-11-30T10:14:26.242Z,3.74
2022-11-30T10:17:18.469Z,4.52
2022-11-30T10:20:05.259Z,8.10
2022-11-30T10:22:35.975Z,8.50
2022-11-30T10:25:30.263Z,7.21
2022-11-30T10:28:30.880Z,6.10
2022-11-30T10:30:55.506Z,5.36
2022-11-30T10:33:37.036Z,4.93
2022-11-30T10:36:13.300Z,4.55
2022-11-30T10:38:44.363Z,4.25
2022-11-30T10:41:18.194Z,4.02
2022-11-30T10:43:49.383Z,3.80
2022-11-30T10:46:31.412Z,4.16
2022-11-30T10:49:17.090Z,7.31
2022-11-30T10:51:56.844Z,8.86
2022-11-30T10:54:24.925Z,7.61
2022-11-30T10:56:53.199Z,6.55
2022-11-30T10:59:30.160Z,5.84
2022-11-30T11:01:58.298Z,5.32
2022-11-30T11:04:28.054Z,4.94
2022-11-30T11:07:14.903Z,4.65
2022-11-30T11:09:50.564Z,4.37
2022-11-30T11:12:25.140Z,4.11
2022-11-30T11:15:15.283Z,3.84
2022-11-30T11:17:43.358Z,4.46
2022-11-30T11:20:31.575Z,7.56
2022-11-30T11:23:00.099Z,8.93
2022-11-30T11:25:32.956Z,7.66
2022-11-30T11:28:08.938Z,6.53
2022-11-30T11:30:38.065Z,5.80
2022-11-30T11:33:14.776Z,5.32
2022-11-30T11:35:46.609Z,4.92
2022-11-30T11:38:23.849Z,4.57
2022-11-30T11:40:56.351Z,4.29
2022-11-30T11:43:27.525Z,4.01
2022-11-30T11:46:01.888Z,3.73
2022-11-30T11:48:38.668Z,4.15
2022-11-30T11:51:09.408Z,7.45
2022-11-30T11:53:48.708Z,8.96
2022-11-30T11:56:26.713Z,7.60
2022-11-30T11:59:03.250Z,6.43
2022-11-30T12:01:40.644Z,5.64
2022-11-30T12:04:35.618Z,5.13
2022-11-30T12:07:17.947Z,4.73
2022-11-30T12:10:50.749Z,4.42
2022-11-30T12:13:24.726Z,4.09
2022-11-30T12:16:05.139Z,3.89
2022-11-30T12:18:58.140Z,3.70
2022-11-30T12:21:52.247Z,4.59
2022-11-30T12:24:26.061Z,8.32
2022-11-30T12:27:03.561Z,8.64
2022-11-30T12:29:49.882Z,7.23
2022-11-30T12:32:57.495Z,6.16
2022-11-30T12:35:27.208Z,5.42
2022-11-30T12:38:16.181Z,5.01
2022-11-30T12:41:07.816Z,4.63
2022-11-30T12:43:55.663Z,4.31
2022-11-30T12:46:41.889Z,4.07
2022-11-30T12:49:26.501Z,3.85
2022-11-30T12:52:25.027Z,4.58
2022-11-30T12:54:59.115Z,8.40
2022-11-30T12:57:38.569Z,8.70
2022-11-30T13:00:26.951Z,7.27
2022-11-30T13:02:58.046Z,6.17
2022-11-30T13:05:40.826Z,5.56
2022-11-30T13:08:20.312Z,5.08
2022-11-30T13:11:03.694Z,4.69
2022-11-30T13:13:34.257Z,4.33
2022-11-30T13:16:06.019Z,4.06
2022-11-30T13:18:35.012Z,3.84
2022-11-30T13:21:23.462Z,3.66
2022-11-30T13:24:42.789Z,4.46
2022-11-30T13:27:20.246Z,8.62
2022-11-30T13:29:56.207Z,8.65
2022-11-30T13:32:56.749Z,7.28
2022-11-30T13:35:28.899Z,6.20
2022-11-30T13:38:35.643Z,5.52
2022-11-30T13:41:05.899Z,5.00
2022-11-30T13:43:52.235Z,4.69
2022-11-30T13:46:24.173Z,4.37
2022-11-30T13:49:35.931Z,4.11
2022-11-30T13:52:23.311Z,5.08
2022-11-30T13:54:58.398Z,8.62
2022-11-30T13:57:29.209Z,8.61
2022-11-30T13:59:59.875Z,7.28
2022-11-30T14:02:34.282Z,6.28
2022-11-30T14:05:20.301Z,5.60
2022-11-30T14:08:00.762Z,5.12
2022-11-30T14:10:38.037Z,4.76
2022-11-30T14:13:30.017Z,4.43
2022-11-30T14:16:00.811Z,4.14
2022-11-30T14:18:42.826Z,4.43
2022-11-30T14:21:22.293Z,7.69
2022-11-30T14:24:06.859Z,9.54
2022-11-30T14:26:43.658Z,8.21
2022-11-30T14:29:20.078Z,6.98
2022-11-30T14:31:48.228Z,6.17
2022-11-30T14:34:21.535Z,5.61
2022-11-30T14:36:58.370Z,5.15
2022-11-30T14:39:27.994Z,4.74
2022-11-30T14:41:56.209Z,4.42
2022-11-30T14:44:24.269Z,4.15
2022-11-30T14:46:52.511Z,4.59
2022-11-30T14:49:23.638Z,7.62
2022-11-30T14:52:02.665Z,9.13
2022-11-30T14:55:10.883Z,7.87
2022-11-30T14:58:20.130Z,6.51
2022-11-30T15:00:49.449Z,5.71
2022-11-30T15:03:23.494Z,5.28
2022-11-30T15:05:54.892Z,4.93
2022-11-30T15:08:24.492Z,4.66
2022-11-30T15:10:56.641Z,4.41
2022-11-30T15:13:24.790Z,4.90
2022-11-30T15:15:55.325Z,7.97
2022-11-30T15:18:25.232Z,9.37
2022-11-30T15:21:02.351Z,8.19
2022-11-30T15:23:30.476Z,7.00
2022-11-30T15:26:14.482Z,6.24
2022-11-30T15:28:47.426Z,5.67
2022-11-30T15:31:17.217Z,5.28
2022-11-30T15:33:47.802Z,4.95
2022-11-30T15:36:31.911Z,4.68
2022-11-30T15:39:07.222Z,4.44
2022-11-30T15:41:36.356Z,4.89
2022-11-30T15:44:04.579Z,7.94
2022-11-30T15:46:44.515Z,9.54
2022-11-30T15:49:27.890Z,8.32
2022-11-30T15:52:04.358Z,7.10
2022-11-30T15:54:55.446Z,6.34
2022-11-30T15:57:25.431Z,5.78
2022-11-30T16:00:09.146Z,5.44
2022-11-30T16:02:38.064Z,5.12
2022-11-30T16:05:14.684Z,4.87
2022-11-30T16:08:00.135Z,4.63
2022-11-30T16:10:38.898Z,5.24
2022-11-30T16:13:06.959Z,8.53
2022-11-30T16:15:37.046Z,9.63
2022-11-30T16:18:22.275Z,8.38
2022-11-30T16:20:53.938Z,7.15
2022-11-30T16:23:22.411Z,6.41
2022-11-30T16:25:51.020Z,5.91
2022-11-30T16:28:21.031Z,5.52
2022-11-30T16:30:50.190Z,5.20
2022-11-30T16:33:23.210Z,4.92
2022-11-30T16:36:01.554Z,4.64
2022-11-30T16:38:29.702Z,5.15
2022-11-30T16:41:14.061Z,8.20
2022-11-30T16:43:43.309Z,9.35
2022-11-30T16:46:19.631Z,8.04
2022-11-30T16:48:49.010Z,6.91
2022-11-30T16:51:27.574Z,6.19
2022-11-30T16:53:56.114Z,5.66
2022-11-30T16:56:24.913Z,5.29
2022-11-30T16:58:53.370Z,4.98
2022-11-30T17:01:35.506Z,4.71
2022-11-30T17:04:26.163Z,5.26
2022-11-30T17:07:00.441Z,8.83
2022-11-30T17:09:30.685Z,9.47
2022-11-30T17:11:58.754Z,8.16
2022-11-30T17:14:26.759Z,7.11
2022-11-30T17:16:54.948Z,6.41
2022-11-30T17:19:23.046Z,5.90
2022-11-30T17:21:51.110Z,5.52
2022-11-30T17:24:19.267Z,5.22
2022-11-30T17:26:47.396Z,4.94
2022-11-30T17:29:15.520Z,4.68
2022-11-30T17:31:43.546Z,5.23
2022-11-30T17:34:11.572Z,8.37
2022-11-30T17:36:39.653Z,9.59
2022-11-30T17:39:09.124Z,8.36
2022-11-30T17:41:37.163Z,7.23
2022-11-30T17:44:05.205Z,6.47
2022-11-30T17:46:33.280Z,5.94
2022-11-30T17:49:01.299Z,5.56
2022-11-30T17:51:29.559Z,5.25
2022-11-30T17:53:58.048Z,4.98
2022-11-30T17:56:28.689Z,4.75
2022-11-30T17:58:56.739Z,5.32
2022-11-30T18:01:26.854Z,8.43
2022-11-30T18:03:56.518Z,9.67
2022-11-30T18:06:24.955Z,8.46
2022-11-30T18:08:55.807Z,7.35
2022-11-30T18:11:26.224Z,6.62
2022-11-30T18:13:56.352Z,6.08
2022-11-30T18:16:27.096Z,5.68
2022-11-30T18:18:57.704Z,5.35
2022-11-30T18:21:29.040Z,5.04
2022-11-30T18:23:58.389Z,4.74
2022-11-30T18:26:27.520Z,5.10
2022-11-30T18:28:57.943Z,8.06
2022-11-30T18:31:28.086Z,9.69
2022-11-30T18:34:05.301Z,8.53
2022-11-30T18:36:34.588Z,7.24
2022-11-30T18:39:03.130Z,6.42
2022-11-30T18:41:31.222Z,5.87
2022-11-30T18:43:59.308Z,5.48
2022-11-30T18:46:27.724Z,5.18
2022-11-30T18:48:56.571Z,4.92
2022-11-30T18:51:27.762Z,5.31
2022-11-30T18:53:58.646Z,8.26
2022-11-30T18:56:30.080Z,9.57
2022-11-30T18:59:00.951Z,8.32
2022-11-30T19:01:30.686Z,7.11
2022-11-30T19:04:02.591Z,6.26
2022-11-30T19:06:33.528Z,5.63
2022-11-30T19:09:05.492Z,5.16
2022-11-30T19:11:34.614Z,4.78
2022-11-30T19:14:04.105Z,4.49
2022-11-30T19:16:37.452Z,5.59
2022-11-30T19:19:08.335Z,8.69
2022-11-30T19:21:37.311Z,9.27
2022-11-30T19:24:07.001Z,7.95
2022-11-30T19:26:36.700Z,6.85
2022-11-30T19:29:05.732Z,6.10
2022-11-30T19:31:34.929Z,5.58
2022-11-30T19:34:09.093Z,5.17
2022-11-30T19:36:41.525Z,4.78
2022-11-30T19:39:11.283Z,5.13
2022-11-30T19:41:40.335Z,7.95
2022-11-30T19:44:14.541Z,9.45
2022-11-30T19:46:43.447Z,8.24
2022-11-30T19:49:12.556Z,7.02
2022-11-30T19:51:42.096Z,6.18
2022-11-30T19:54:11.984Z,5.60
2022-11-30T19:56:43.164Z,5.17
2022-11-30T19:59:11.855Z,5.49
2022-11-30T20:01:40.617Z,8.41
2022-11-30T20:04:09.403Z,9.70
2022-11-30T20:06:39.051Z,8.49
2022-11-30T20:09:09.330Z,7.30
2022-11-30T20:11:37.844Z,6.49
2022-11-30T20:14:06.200Z,5.94
2022-11-30T20:16:34.363Z,5.50
2022-11-30T20:19:03.294Z,5.15
2022-11-30T20:21:34.723Z,5.50
2022-11-30T20:24:07.193Z,8.40
2022-11-30T20:26:38.384Z,9.79
2022-11-30T20:29:08.519Z,8.61
2022-11-30T20:31:37.716Z,7.49
2022-11-30T20:34:08.344Z,6.74
2022-11-30T20:36:37.239Z,6.21
2022-11-30T20:39:06.204Z,5.83
2022-11-30T20:41:34.516Z,5.51
2022-11-30T20:44:03.094Z,5.23
2022-11-30T20:46:33.762Z,5.60
2022-11-30T20:49:03.563Z,8.36
2022-11-30T20:51:36.609Z,9.84
2022-11-30T20:54:07.295Z,8.74
2022-11-30T20:56:37.516Z,7.62
2022-11-30T20:59:09.397Z,6.86
2022-11-30T21:01:37.544Z,6.34
2022-11-30T21:04:05.645Z,5.96
2022-11-30T21:06:33.775Z,5.65
2022-11-30T21:09:02.023Z,5.38
2022-11-30T21:11:31.323Z,5.84
2022-11-30T21:13:59.683Z,8.68
2022-11-30T21:16:29.764Z,9.91
2022-11-30T21:19:00.001Z,8.77
2022-11-30T21:21:33.465Z,7.68
2022-11-30T21:24:04.030Z,6.91
2022-11-30T21:26:34.699Z,6.39
2022-11-30T21:29:07.068Z,6.00
2022-11-30T21:31:35.974Z,5.67
2022-11-30T21:34:04.103Z,6.01
2022-11-30T21:36:32.554Z,8.82
2022-11-30T21:39:06.036Z,10.15
2022-11-30T21:41:37.733Z,9.00
2022-11-30T21:44:08.317Z,7.88
2022-11-30T21:46:36.446Z,7.13
2022-11-30T21:49:04.900Z,6.60
2022-11-30T21:51:33.618Z,6.21
2022-11-30T21:54:05.307Z,5.87
2022-11-30T21:56:36.130Z,5.59
2022-11-30T21:59:07.610Z,6.06
2022-11-30T22:01:38.701Z,8.89
2022-11-30T22:04:09.450Z,10.17
2022-11-30T22:06:39.493Z,9.03
2022-11-30T22:09:12.699Z,7.91
2022-11-30T22:11:42.981Z,7.13
2022-11-30T22:14:14.098Z,6.60
2022-11-30T22:16:42.626Z,6.20
2022-11-30T22:19:11.264Z,5.86
2022-11-30T22:21:39.771Z,6.12
2022-11-30T22:24:11.116Z,8.79
2022-11-30T22:26:44.295Z,10.19
2022-11-30T22:29:15.650Z,9.06
2022-11-30T22:31:45.767Z,7.92
2022-11-30T22:34:14.081Z,7.15
2022-11-30T22:36:43.620Z,6.62
2022-11-30T22:39:14.683Z,6.20
2022-11-30T22:41:45.278Z,5.85
2022-11-30T22:44:15.521Z,6.29
2022-11-30T22:46:44.734Z,8.94
2022-11-30T22:49:20.297Z,10.23
2022-11-30T22:51:49.888Z,9.07
2022-11-30T22:54:18.560Z,7.97
2022-11-30T22:56:47.001Z,7.20
2022-11-30T22:59:15.975Z,6.65
2022-11-30T23:01:47.181Z,6.24
2022-11-30T23:04:18.482Z,5.89
2022-11-30T23:06:48.434Z,6.27
2022-11-30T23:09:19.616Z,8.85
2022-11-30T23:11:48.615Z,10.16
2022-11-30T23:14:17.462Z,9.07
2022-11-30T23:16:46.172Z,7.95
2022-11-30T23:19:15.419Z,7.17
2022-11-30T23:21:47.181Z,6.62
2022-11-30T23:24:20.430Z,6.19
2022-11-30T23:26:49.314Z,5.84
2022-11-30T23:29:18.235Z,6.33
2022-11-30T23:31:47.645Z,9.11
2022-11-30T23:34:19.871Z,10.16
2022-11-30T23:36:49.099Z,8.98
2022-11-30T23:39:18.702Z,7.87
2022-11-30T23:41:46.868Z,7.11
2022-11-30T23:44:15.149Z,6.58
2022-11-30T23:46:43.400Z,6.17
2022-11-30T23:49:14.145Z,6.54
2022-11-30T23:51:43.127Z,9.14
2022-11-30T23:54:11.164Z,10.02
2022-11-30T23:56:39.183Z,8.89
2022-11-30T23:59:07.214Z,7.84
